sensor_id;sensor_type;location;lat;lon;timestamp;temperature;humidity
3051;DHT22;1535;51.098;6.414;2023-10-09T00:02:14;15.90;99.90
3051;DHT22;1535;51.098;6.414;2023-10-09T00:04:43;15.90;99.90
3051;DHT22;1535;51.098;6.414;2023-10-09T00:07:11;15.90;99.90
3051;DHT22;1535;51.098;6.414;2023-10-09T00:09:39;15.80;99.90
3051;DHT22;1535;51.098;6.414;2023-10-09T00:12:14;15.80;99.90
3051;DHT22;1535;51.098;6.414;2023-10-09T00:14:42;15.70;99.90
3051;DHT22;1535;51.098;6.414;2023-10-09T00:17:14;15.60;99.90
3051;DHT22;1535;51.098;6.414;2023-10-09T00:19:45;15.60;99.90
3051;DHT22;1535;51.098;6.414;2023-10-09T00:22:16;15.50;99.90
3051;DHT22;1535;51.098;6.414;2023-10-09T00:24:59;15.50;99.90
3051;DHT22;1535;51.098;6.414;2023-10-09T00:27:39;15.50;99.90
3051;DHT22;1535;51.098;6.414;2023-10-09T00:30:09;15.50;99.90
3051;DHT22;1535;51.098;6.414;2023-10-09T00:32:43;15.40;99.90
3051;DHT22;1535;51.098;6.414;2023-10-09T00:35:18;15.30;99.90
3051;DHT22;1535;51.098;6.414;2023-10-09T00:38:04;15.20;99.90
3051;DHT22;1535;51.098;6.414;2023-10-09T00:40:41;15.10;99.90
3051;DHT22;1535;51.098;6.414;2023-10-09T00:43:13;15.20;99.90
3051;DHT22;1535;51.098;6.414;2023-10-09T00:45:41;15.20;99.90
3051;DHT22;1535;51.098;6.414;2023-10-09T00:48:11;15.20;99.90
3051;DHT22;1535;51.098;6.414;2023-10-09T00:50:48;15.30;99.90
3051;DHT22;1535;51.098;6.414;2023-10-09T00:53:19;15.40;99.90
3051;DHT22;1535;51.098;6.414;2023-10-09T00:55:57;15.50;99.90
3051;DHT22;1535;51.098;6.414;2023-10-09T00:58:29;15.50;99.90
3051;DHT22;1535;51.098;6.414;2023-10-09T01:01:01;15.60;99.90
3051;DHT22;1535;51.098;6.414;2023-10-09T01:03:31;15.70;99.90
3051;DHT22;1535;51.098;6.414;2023-10-09T01:06:01;15.70;99.90
3051;DHT22;1535;51.098;6.414;2023-10-09T01:08:42;15.70;99.90
3051;DHT22;1535;51.098;6.414;2023-10-09T01:11:14;15.80;99.90
3051;DHT22;1535;51.098;6.414;2023-10-09T01:13:47;15.80;99.90
3051;DHT22;1535;51.098;6.414;2023-10-09T01:16:20;15.90;99.90
3051;DHT22;1535;51.098;6.414;2023-10-09T01:18:50;15.90;99.90
3051;DHT22;1535;51.098;6.414;2023-10-09T01:21:17;15.90;99.90
3051;DHT22;1535;51.098;6.414;2023-10-09T01:23:50;15.90;99.90
3051;DHT22;1535;51.098;6.414;2023-10-09T01:26:30;15.90;99.90
3051;DHT22;1535;51.098;6.414;2023-10-09T01:28:59;16.00;99.90
3051;DHT22;1535;51.098;6.414;2023-10-09T01:31:28;15.90;99.90
3051;DHT22;1535;51.098;6.414;2023-10-09T01:34:03;15.90;99.90
3051;DHT22;1535;51.098;6.414;2023-10-09T01:36:36;15.90;99.90
3051;DHT22;1535;51.098;6.414;2023-10-09T01:39:06;15.90;99.90
3051;DHT22;1535;51.098;6.414;2023-10-09T01:41:36;15.90;99.90
3051;DHT22;1535;51.098;6.414;2023-10-09T01:44:12;15.90;99.90
3051;DHT22;1535;51.098;6.414;2023-10-09T01:46:42;15.90;99.90
3051;DHT22;1535;51.098;6.414;2023-10-09T01:49:11;15.90;99.90
3051;DHT22;1535;51.098;6.414;2023-10-09T01:51:43;15.90;99.90
3051;DHT22;1535;51.098;6.414;2023-10-09T01:54:14;15.90;99.90
3051;DHT22;1535;51.098;6.414;2023-10-09T01:56:43;15.90;99.90
3051;DHT22;1535;51.098;6.414;2023-10-09T01:59:12;15.90;99.90
3051;DHT22;1535;51.098;6.414;2023-10-09T02:01:41;15.90;99.90
3051;DHT22;1535;51.098;6.414;2023-10-09T02:04:13;15.80;99.90
3051;DHT22;1535;51.098;6.414;2023-10-09T02:06:42;15.80;99.90
3051;DHT22;1535;51.098;6.414;2023-10-09T02:09:09;15.80;99.90
3051;DHT22;1535;51.098;6.414;2023-10-09T02:11:47;15.80;99.90
3051;DHT22;1535;51.098;6.414;2023-10-09T02:14:17;15.80;99.90
3051;DHT22;1535;51.098;6.414;2023-10-09T02:16:46;15.70;99.90
3051;DHT22;1535;51.098;6.414;2023-10-09T02:19:29;15.70;99.90
3051;DHT22;1535;51.098;6.414;2023-10-09T02:22:00;15.70;99.90
3051;DHT22;1535;51.098;6.414;2023-10-09T02:24:38;15.80;99.90
3051;DHT22;1535;51.098;6.414;2023-10-09T02:27:24;15.80;99.90
3051;DHT22;1535;51.098;6.414;2023-10-09T02:30:11;15.90;99.90
3051;DHT22;1535;51.098;6.414;2023-10-09T02:32:47;15.90;99.90
3051;DHT22;1535;51.098;6.414;2023-10-09T02:35:19;16.10;99.90
3051;DHT22;1535;51.098;6.414;2023-10-09T02:37:54;16.10;99.90
3051;DHT22;1535;51.098;6.414;2023-10-09T02:40:21;16.20;99.90
3051;DHT22;1535;51.098;6.414;2023-10-09T02:42:54;16.30;99.90
3051;DHT22;1535;51.098;6.414;2023-10-09T02:45:23;16.30;99.90
3051;DHT22;1535;51.098;6.414;2023-10-09T02:47:54;16.40;99.90
3051;DHT22;1535;51.098;6.414;2023-10-09T02:50:21;16.40;99.90
3051;DHT22;1535;51.098;6.414;2023-10-09T02:52:51;16.50;99.90
3051;DHT22;1535;51.098;6.414;2023-10-09T02:55:24;16.50;99.90
3051;DHT22;1535;51.098;6.414;2023-10-09T02:57:55;16.60;99.90
3051;DHT22;1535;51.098;6.414;2023-10-09T03:00:31;16.60;99.90
3051;DHT22;1535;51.098;6.414;2023-10-09T03:03:04;16.60;99.90
3051;DHT22;1535;51.098;6.414;2023-10-09T03:05:33;16.60;99.90
3051;DHT22;1535;51.098;6.414;2023-10-09T03:08:04;16.60;99.90
3051;DHT22;1535;51.098;6.414;2023-10-09T03:10:31;16.60;99.90
3051;DHT22;1535;51.098;6.414;2023-10-09T03:13:01;16.60;99.90
3051;DHT22;1535;51.098;6.414;2023-10-09T03:15:31;16.70;99.90
3051;DHT22;1535;51.098;6.414;2023-10-09T03:18:01;16.70;99.90
3051;DHT22;1535;51.098;6.414;2023-10-09T03:20:28;16.70;99.90
3051;DHT22;1535;51.098;6.414;2023-10-09T03:22:56;16.70;99.90
3051;DHT22;1535;51.098;6.414;2023-10-09T03:25:23;16.70;99.90
3051;DHT22;1535;51.098;6.414;2023-10-09T03:27:52;16.70;99.90
3051;DHT22;1535;51.098;6.414;2023-10-09T03:30:23;16.80;99.90
3051;DHT22;1535;51.098;6.414;2023-10-09T03:32:51;16.80;99.90
3051;DHT22;1535;51.098;6.414;2023-10-09T03:35:18;16.80;99.90
3051;DHT22;1535;51.098;6.414;2023-10-09T03:37:52;16.80;99.90
3051;DHT22;1535;51.098;6.414;2023-10-09T03:40:23;16.80;99.90
3051;DHT22;1535;51.098;6.414;2023-10-09T03:42:51;16.70;99.90
3051;DHT22;1535;51.098;6.414;2023-10-09T03:45:18;16.80;99.90
3051;DHT22;1535;51.098;6.414;2023-10-09T03:47:55;16.70;99.90
3051;DHT22;1535;51.098;6.414;2023-10-09T03:50:28;16.80;99.90
3051;DHT22;1535;51.098;6.414;2023-10-09T03:53:02;16.70;99.90
3051;DHT22;1535;51.098;6.414;2023-10-09T03:55:32;16.80;99.90
3051;DHT22;1535;51.098;6.414;2023-10-09T03:57:59;16.80;99.90
3051;DHT22;1535;51.098;6.414;2023-10-09T04:00:28;16.70;99.90
3051;DHT22;1535;51.098;6.414;2023-10-09T04:02:58;16.70;99.90
3051;DHT22;1535;51.098;6.414;2023-10-09T04:05:27;16.70;99.90
3051;DHT22;1535;51.098;6.414;2023-10-09T04:07:55;16.60;99.90
3051;DHT22;1535;51.098;6.414;2023-10-09T04:10:24;16.60;99.90
3051;DHT22;1535;51.098;6.414;2023-10-09T04:13:11;16.60;99.90
3051;DHT22;1535;51.098;6.414;2023-10-09T04:15:42;16.60;99.90
3051;DHT22;1535;51.098;6.414;2023-10-09T04:18:11;16.60;99.90
3051;DHT22;1535;51.098;6.414;2023-10-09T04:20:44;16.60;99.90
3051;DHT22;1535;51.098;6.414;2023-10-09T04:23:36;16.70;99.90
3051;DHT22;1535;51.098;6.414;2023-10-09T04:26:24;16.70;99.90
3051;DHT22;1535;51.098;6.414;2023-10-09T04:28:52;16.60;99.90
3051;DHT22;1535;51.098;6.414;2023-10-09T04:31:19;16.60;99.90
3051;DHT22;1535;51.098;6.414;2023-10-09T04:33:49;16.70;99.90
3051;DHT22;1535;51.098;6.414;2023-10-09T04:36:44;16.70;99.90
3051;DHT22;1535;51.098;6.414;2023-10-09T04:39:15;16.70;99.90
3051;DHT22;1535;51.098;6.414;2023-10-09T04:42:00;16.60;99.90
3051;DHT22;1535;51.098;6.414;2023-10-09T04:44:45;16.60;99.90
3051;DHT22;1535;51.098;6.414;2023-10-09T04:47:26;16.50;99.90
3051;DHT22;1535;51.098;6.414;2023-10-09T04:50:04;16.50;99.90
3051;DHT22;1535;51.098;6.414;2023-10-09T04:52:38;16.50;99.90
3051;DHT22;1535;51.098;6.414;2023-10-09T04:55:19;16.50;99.90
3051;DHT22;1535;51.098;6.414;2023-10-09T04:57:51;16.50;99.90
3051;DHT22;1535;51.098;6.414;2023-10-09T05:00:27;16.50;99.90
3051;DHT22;1535;51.098;6.414;2023-10-09T05:03:28;16.50;99.90
3051;DHT22;1535;51.098;6.414;2023-10-09T05:06:10;16.50;99.90
3051;DHT22;1535;51.098;6.414;2023-10-09T05:08:54;16.50;99.90
3051;DHT22;1535;51.098;6.414;2023-10-09T05:11:34;16.30;99.90
3051;DHT22;1535;51.098;6.414;2023-10-09T05:14:17;16.40;99.90
3051;DHT22;1535;51.098;6.414;2023-10-09T05:16:53;16.30;99.90
3051;DHT22;1535;51.098;6.414;2023-10-09T05:19:27;16.30;99.90
3051;DHT22;1535;51.098;6.414;2023-10-09T05:22:09;16.20;99.90
3051;DHT22;1535;51.098;6.414;2023-10-09T05:24:55;16.20;99.90
3051;DHT22;1535;51.098;6.414;2023-10-09T05:27:22;16.30;99.90
3051;DHT22;1535;51.098;6.414;2023-10-09T05:30:10;16.30;99.90
3051;DHT22;1535;51.098;6.414;2023-10-09T05:32:55;16.20;99.90
3051;DHT22;1535;51.098;6.414;2023-10-09T05:35:24;16.20;99.90
3051;DHT22;1535;51.098;6.414;2023-10-09T05:38:07;16.20;99.90
3051;DHT22;1535;51.098;6.414;2023-10-09T05:40:49;16.30;99.90
3051;DHT22;1535;51.098;6.414;2023-10-09T05:43:19;16.20;99.90
3051;DHT22;1535;51.098;6.414;2023-10-09T05:46:00;16.30;99.90
3051;DHT22;1535;51.098;6.414;2023-10-09T05:48:40;16.30;99.90
3051;DHT22;1535;51.098;6.414;2023-10-09T05:51:21;16.30;99.90
3051;DHT22;1535;51.098;6.414;2023-10-09T05:54:07;16.40;99.90
3051;DHT22;1535;51.098;6.414;2023-10-09T05:57:10;16.40;99.90
3051;DHT22;1535;51.098;6.414;2023-10-09T05:59:54;16.40;99.90
3051;DHT22;1535;51.098;6.414;2023-10-09T06:02:39;16.50;99.90
3051;DHT22;1535;51.098;6.414;2023-10-09T06:05:25;16.40;99.90
3051;DHT22;1535;51.098;6.414;2023-10-09T06:08:07;16.40;99.90
3051;DHT22;1535;51.098;6.414;2023-10-09T06:10:40;16.40;99.90
3051;DHT22;1535;51.098;6.414;2023-10-09T06:13:09;16.40;99.90
3051;DHT22;1535;51.098;6.414;2023-10-09T06:15:49;16.50;99.90
3051;DHT22;1535;51.098;6.414;2023-10-09T06:18:45;16.50;99.90
3051;DHT22;1535;51.098;6.414;2023-10-09T06:21:20;16.60;99.90
3051;DHT22;1535;51.098;6.414;2023-10-09T06:24:26;16.70;99.90
3051;DHT22;1535;51.098;6.414;2023-10-09T06:27:00;16.70;99.90
3051;DHT22;1535;51.098;6.414;2023-10-09T06:29:49;16.70;99.90
3051;DHT22;1535;51.098;6.414;2023-10-09T06:32:39;16.70;99.90
3051;DHT22;1535;51.098;6.414;2023-10-09T06:35:15;16.80;99.90
3051;DHT22;1535;51.098;6.414;2023-10-09T06:37:49;16.90;99.90
3051;DHT22;1535;51.098;6.414;2023-10-09T06:40:35;17.00;99.90
3051;DHT22;1535;51.098;6.414;2023-10-09T06:43:22;17.00;99.90
3051;DHT22;1535;51.098;6.414;2023-10-09T06:45:56;16.90;99.90
3051;DHT22;1535;51.098;6.414;2023-10-09T06:48:44;17.00;99.90
3051;DHT22;1535;51.098;6.414;2023-10-09T06:51:22;16.90;99.90
3051;DHT22;1535;51.098;6.414;2023-10-09T06:54:03;17.00;99.90
3051;DHT22;1535;51.098;6.414;2023-10-09T06:56:35;17.10;99.90
3051;DHT22;1535;51.098;6.414;2023-10-09T06:59:21;17.10;99.90
3051;DHT22;1535;51.098;6.414;2023-10-09T07:01:50;17.20;99.90
3051;DHT22;1535;51.098;6.414;2023-10-09T07:04:32;17.20;99.90
3051;DHT22;1535;51.098;6.414;2023-10-09T07:07:13;17.20;99.90
3051;DHT22;1535;51.098;6.414;2023-10-09T07:09:42;17.20;99.90
3051;DHT22;1535;51.098;6.414;2023-10-09T07:12:09;17.20;99.90
3051;DHT22;1535;51.098;6.414;2023-10-09T07:14:42;17.20;99.90
3051;DHT22;1535;51.098;6.414;2023-10-09T07:17:26;17.30;99.90
3051;DHT22;1535;51.098;6.414;2023-10-09T07:20:11;17.40;99.90
3051;DHT22;1535;51.098;6.414;2023-10-09T07:22:42;17.40;99.90
3051;DHT22;1535;51.098;6.414;2023-10-09T07:25:39;17.40;99.90
3051;DHT22;1535;51.098;6.414;2023-10-09T07:28:21;17.50;99.90
3051;DHT22;1535;51.098;6.414;2023-10-09T07:31:17;17.40;99.90
3051;DHT22;1535;51.098;6.414;2023-10-09T07:33:50;17.40;99.90
3051;DHT22;1535;51.098;6.414;2023-10-09T07:36:22;17.50;99.90
3051;DHT22;1535;51.098;6.414;2023-10-09T07:39:03;17.50;99.90
3051;DHT22;1535;51.098;6.414;2023-10-09T07:41:39;17.50;99.90
3051;DHT22;1535;51.098;6.414;2023-10-09T07:44:12;17.50;99.90
3051;DHT22;1535;51.098;6.414;2023-10-09T07:47:04;17.60;99.90
3051;DHT22;1535;51.098;6.414;2023-10-09T07:49:43;17.70;99.90
3051;DHT22;1535;51.098;6.414;2023-10-09T07:52:15;17.80;99.90
3051;DHT22;1535;51.098;6.414;2023-10-09T07:54:45;17.80;99.90
3051;DHT22;1535;51.098;6.414;2023-10-09T07:57:20;17.90;99.90
3051;DHT22;1535;51.098;6.414;2023-10-09T07:59:51;17.90;99.90
3051;DHT22;1535;51.098;6.414;2023-10-09T08:02:28;18.00;99.90
3051;DHT22;1535;51.098;6.414;2023-10-09T08:04:59;17.90;99.90
3051;DHT22;1535;51.098;6.414;2023-10-09T08:07:32;17.90;99.90
3051;DHT22;1535;51.098;6.414;2023-10-09T08:10:03;17.90;99.90
3051;DHT22;1535;51.098;6.414;2023-10-09T08:12:48;18.10;99.90
3051;DHT22;1535;51.098;6.414;2023-10-09T08:15:47;18.30;99.90
3051;DHT22;1535;51.098;6.414;2023-10-09T08:18:19;18.40;99.90
3051;DHT22;1535;51.098;6.414;2023-10-09T08:20:54;18.30;99.90
3051;DHT22;1535;51.098;6.414;2023-10-09T08:23:39;18.40;99.90
3051;DHT22;1535;51.098;6.414;2023-10-09T08:26:15;18.10;99.90
3051;DHT22;1535;51.098;6.414;2023-10-09T08:28:54;18.20;99.90
3051;DHT22;1535;51.098;6.414;2023-10-09T08:31:41;18.30;99.90
3051;DHT22;1535;51.098;6.414;2023-10-09T08:34:13;18.30;99.90
3051;DHT22;1535;51.098;6.414;2023-10-09T08:36:51;18.40;99.90
3051;DHT22;1535;51.098;6.414;2023-10-09T08:39:21;18.50;99.90
3051;DHT22;1535;51.098;6.414;2023-10-09T08:41:59;18.70;99.90
3051;DHT22;1535;51.098;6.414;2023-10-09T08:44:27;18.80;99.90
3051;DHT22;1535;51.098;6.414;2023-10-09T08:46:57;19.10;99.90
3051;DHT22;1535;51.098;6.414;2023-10-09T08:49:26;19.20;99.90
3051;DHT22;1535;51.098;6.414;2023-10-09T08:51:52;19.40;99.90
3051;DHT22;1535;51.098;6.414;2023-10-09T08:54:21;19.30;99.90
3051;DHT22;1535;51.098;6.414;2023-10-09T08:56:48;19.20;99.90
3051;DHT22;1535;51.098;6.414;2023-10-09T08:59:20;19.30;99.90
3051;DHT22;1535;51.098;6.414;2023-10-09T09:01:49;19.40;99.90
3051;DHT22;1535;51.098;6.414;2023-10-09T09:04:38;19.40;99.90
3051;DHT22;1535;51.098;6.414;2023-10-09T09:07:06;19.30;99.90
3051;DHT22;1535;51.098;6.414;2023-10-09T09:09:33;19.30;99.90
3051;DHT22;1535;51.098;6.414;2023-10-09T09:12:01;19.30;99.90
3051;DHT22;1535;51.098;6.414;2023-10-09T09:14:38;19.40;99.90
3051;DHT22;1535;51.098;6.414;2023-10-09T09:17:05;19.20;99.90
3051;DHT22;1535;51.098;6.414;2023-10-09T09:19:37;19.20;99.90
3051;DHT22;1535;51.098;6.414;2023-10-09T09:22:04;19.50;99.90
3051;DHT22;1535;51.098;6.414;2023-10-09T09:24:40;19.60;99.90
3051;DHT22;1535;51.098;6.414;2023-10-09T09:27:43;19.80;99.90
3051;DHT22;1535;51.098;6.414;2023-10-09T09:30:23;19.90;99.90
3051;DHT22;1535;51.098;6.414;2023-10-09T09:32:51;19.80;99.90
3051;DHT22;1535;51.098;6.414;2023-10-09T09:35:55;19.70;99.90
3051;DHT22;1535;51.098;6.414;2023-10-09T09:38:26;19.90;99.90
3051;DHT22;1535;51.098;6.414;2023-10-09T09:40:56;20.10;99.90
3051;DHT22;1535;51.098;6.414;2023-10-09T09:43:29;20.00;99.90
3051;DHT22;1535;51.098;6.414;2023-10-09T09:46:00;19.90;99.90
3051;DHT22;1535;51.098;6.414;2023-10-09T09:48:37;20.20;99.90
3051;DHT22;1535;51.098;6.414;2023-10-09T09:51:12;20.60;99.90
3051;DHT22;1535;51.098;6.414;2023-10-09T09:53:41;20.90;99.90
3051;DHT22;1535;51.098;6.414;2023-10-09T09:56:14;21.00;99.90
3051;DHT22;1535;51.098;6.414;2023-10-09T09:58:46;21.00;99.90
3051;DHT22;1535;51.098;6.414;2023-10-09T10:01:19;20.80;99.90
3051;DHT22;1535;51.098;6.414;2023-10-09T10:03:53;20.90;99.90
3051;DHT22;1535;51.098;6.414;2023-10-09T10:06:23;20.90;99.90
3051;DHT22;1535;51.098;6.414;2023-10-09T10:08:52;20.70;99.90
3051;DHT22;1535;51.098;6.414;2023-10-09T10:11:43;20.80;99.90
3051;DHT22;1535;51.098;6.414;2023-10-09T10:14:11;20.80;99.90
3051;DHT22;1535;51.098;6.414;2023-10-09T10:17:00;21.00;99.90
3051;DHT22;1535;51.098;6.414;2023-10-09T10:19:59;21.00;99.90
3051;DHT22;1535;51.098;6.414;2023-10-09T10:22:29;21.40;99.90
3051;DHT22;1535;51.098;6.414;2023-10-09T10:24:58;21.40;99.90
3051;DHT22;1535;51.098;6.414;2023-10-09T10:27:30;21.50;99.90
3051;DHT22;1535;51.098;6.414;2023-10-09T10:30:29;21.50;99.90
3051;DHT22;1535;51.098;6.414;2023-10-09T10:33:02;21.30;99.90
3051;DHT22;1535;51.098;6.414;2023-10-09T10:35:39;21.50;99.90
3051;DHT22;1535;51.098;6.414;2023-10-09T10:38:28;21.50;99.90
3051;DHT22;1535;51.098;6.414;2023-10-09T10:41:24;21.60;99.90
3051;DHT22;1535;51.098;6.414;2023-10-09T10:43:50;21.60;99.90
3051;DHT22;1535;51.098;6.414;2023-10-09T10:46:26;21.70;99.90
3051;DHT22;1535;51.098;6.414;2023-10-09T10:49:05;21.60;99.90
3051;DHT22;1535;51.098;6.414;2023-10-09T10:51:46;21.70;99.90
3051;DHT22;1535;51.098;6.414;2023-10-09T10:54:23;21.70;99.90
3051;DHT22;1535;51.098;6.414;2023-10-09T10:57:15;21.70;99.90
3051;DHT22;1535;51.098;6.414;2023-10-09T10:59:54;21.50;99.90
3051;DHT22;1535;51.098;6.414;2023-10-09T11:02:43;21.50;99.90
3051;DHT22;1535;51.098;6.414;2023-10-09T11:05:13;21.30;99.90
3051;DHT22;1535;51.098;6.414;2023-10-09T11:07:57;21.30;99.90
3051;DHT22;1535;51.098;6.414;2023-10-09T11:10:27;21.50;99.90
3051;DHT22;1535;51.098;6.414;2023-10-09T11:12:58;21.40;99.90
3051;DHT22;1535;51.098;6.414;2023-10-09T11:15:57;21.40;99.90
3051;DHT22;1535;51.098;6.414;2023-10-09T11:18:41;21.50;99.90
3051;DHT22;1535;51.098;6.414;2023-10-09T11:21:14;21.60;99.90
3051;DHT22;1535;51.098;6.414;2023-10-09T11:23:58;21.90;99.90
3051;DHT22;1535;51.098;6.414;2023-10-09T11:26:27;21.90;99.90
3051;DHT22;1535;51.098;6.414;2023-10-09T11:29:09;21.70;99.90
3051;DHT22;1535;51.098;6.414;2023-10-09T11:31:58;21.60;99.90
3051;DHT22;1535;51.098;6.414;2023-10-09T11:34:26;21.80;99.90
3051;DHT22;1535;51.098;6.414;2023-10-09T11:36:58;21.70;99.90
3051;DHT22;1535;51.098;6.414;2023-10-09T11:39:26;21.50;99.90
3051;DHT22;1535;51.098;6.414;2023-10-09T11:42:06;21.60;99.90
3051;DHT22;1535;51.098;6.414;2023-10-09T11:44:40;21.50;99.90
3051;DHT22;1535;51.098;6.414;2023-10-09T11:47:07;21.60;99.90
3051;DHT22;1535;51.098;6.414;2023-10-09T11:49:50;21.60;99.90
3051;DHT22;1535;51.098;6.414;2023-10-09T11:52:29;21.80;99.90
3051;DHT22;1535;51.098;6.414;2023-10-09T11:55:00;21.90;99.90
3051;DHT22;1535;51.098;6.414;2023-10-09T11:57:30;22.10;99.90
3051;DHT22;1535;51.098;6.414;2023-10-09T11:59:57;22.20;99.90
3051;DHT22;1535;51.098;6.414;2023-10-09T12:02:25;21.90;99.90
3051;DHT22;1535;51.098;6.414;2023-10-09T12:04:54;22.10;99.90
3051;DHT22;1535;51.098;6.414;2023-10-09T12:07:24;22.00;99.90
3051;DHT22;1535;51.098;6.414;2023-10-09T12:09:52;22.20;99.90
3051;DHT22;1535;51.098;6.414;2023-10-09T12:12:22;22.50;99.90
3051;DHT22;1535;51.098;6.414;2023-10-09T12:14:53;22.70;99.90
3051;DHT22;1535;51.098;6.414;2023-10-09T12:17:20;22.50;99.90
3051;DHT22;1535;51.098;6.414;2023-10-09T12:19:51;22.60;99.90
3051;DHT22;1535;51.098;6.414;2023-10-09T12:22:18;22.70;99.90
3051;DHT22;1535;51.098;6.414;2023-10-09T12:24:47;22.70;99.90
3051;DHT22;1535;51.098;6.414;2023-10-09T12:27:14;22.80;99.90
3051;DHT22;1535;51.098;6.414;2023-10-09T12:29:46;22.70;99.90
3051;DHT22;1535;51.098;6.414;2023-10-09T12:32:14;22.90;99.90
3051;DHT22;1535;51.098;6.414;2023-10-09T12:34:45;23.00;99.90
3051;DHT22;1535;51.098;6.414;2023-10-09T12:37:16;23.10;99.90
3051;DHT22;1535;51.098;6.414;2023-10-09T12:39:46;23.10;99.90
3051;DHT22;1535;51.098;6.414;2023-10-09T12:42:13;23.00;99.90
3051;DHT22;1535;51.098;6.414;2023-10-09T12:44:42;22.90;99.90
3051;DHT22;1535;51.098;6.414;2023-10-09T12:47:10;23.10;99.90
3051;DHT22;1535;51.098;6.414;2023-10-09T12:49:39;23.30;99.90
3051;DHT22;1535;51.098;6.414;2023-10-09T12:52:07;23.30;99.90
3051;DHT22;1535;51.098;6.414;2023-10-09T12:54:42;23.20;99.90
3051;DHT22;1535;51.098;6.414;2023-10-09T12:57:11;23.30;99.90
3051;DHT22;1535;51.098;6.414;2023-10-09T12:59:40;23.10;99.90
3051;DHT22;1535;51.098;6.414;2023-10-09T13:02:12;23.10;99.90
3051;DHT22;1535;51.098;6.414;2023-10-09T13:04:41;23.00;99.90
3051;DHT22;1535;51.098;6.414;2023-10-09T13:07:08;23.00;99.90
3051;DHT22;1535;51.098;6.414;2023-10-09T13:09:35;22.60;99.90
3051;DHT22;1535;51.098;6.414;2023-10-09T13:12:08;22.70;99.90
3051;DHT22;1535;51.098;6.414;2023-10-09T13:14:35;22.80;99.90
3051;DHT22;1535;51.098;6.414;2023-10-09T13:17:02;22.60;99.90
3051;DHT22;1535;51.098;6.414;2023-10-09T13:19:35;22.30;99.90
3051;DHT22;1535;51.098;6.414;2023-10-09T13:22:03;22.10;99.90
3051;DHT22;1535;51.098;6.414;2023-10-09T13:24:38;22.10;99.90
3051;DHT22;1535;51.098;6.414;2023-10-09T13:27:05;22.10;99.90
3051;DHT22;1535;51.098;6.414;2023-10-09T13:29:35;22.20;99.90
3051;DHT22;1535;51.098;6.414;2023-10-09T13:32:05;22.30;99.90
3051;DHT22;1535;51.098;6.414;2023-10-09T13:34:40;22.60;99.90
3051;DHT22;1535;51.098;6.414;2023-10-09T13:37:12;22.50;99.90
3051;DHT22;1535;51.098;6.414;2023-10-09T13:39:40;22.30;99.90
3051;DHT22;1535;51.098;6.414;2023-10-09T13:42:18;22.10;99.90
3051;DHT22;1535;51.098;6.414;2023-10-09T13:44:44;22.20;99.90
3051;DHT22;1535;51.098;6.414;2023-10-09T13:47:14;22.50;99.90
3051;DHT22;1535;51.098;6.414;2023-10-09T13:49:46;22.90;99.90
3051;DHT22;1535;51.098;6.414;2023-10-09T13:52:19;23.00;99.90
3051;DHT22;1535;51.098;6.414;2023-10-09T13:54:47;22.70;99.90
3051;DHT22;1535;51.098;6.414;2023-10-09T13:57:16;22.40;99.90
3051;DHT22;1535;51.098;6.414;2023-10-09T13:59:43;22.50;99.90
3051;DHT22;1535;51.098;6.414;2023-10-09T14:02:14;22.60;99.90
3051;DHT22;1535;51.098;6.414;2023-10-09T14:04:44;22.90;99.90
3051;DHT22;1535;51.098;6.414;2023-10-09T14:07:12;23.10;99.90
3051;DHT22;1535;51.098;6.414;2023-10-09T14:09:44;23.10;99.90
3051;DHT22;1535;51.098;6.414;2023-10-09T14:12:33;23.10;99.90
3051;DHT22;1535;51.098;6.414;2023-10-09T14:15:06;23.10;99.90
3051;DHT22;1535;51.098;6.414;2023-10-09T14:17:36;23.10;99.90
3051;DHT22;1535;51.098;6.414;2023-10-09T14:20:08;22.90;99.90
3051;DHT22;1535;51.098;6.414;2023-10-09T14:22:49;22.50;99.90
3051;DHT22;1535;51.098;6.414;2023-10-09T14:25:19;22.60;99.90
3051;DHT22;1535;51.098;6.414;2023-10-09T14:27:47;22.80;99.90
3051;DHT22;1535;51.098;6.414;2023-10-09T14:30:14;23.30;99.90
3051;DHT22;1535;51.098;6.414;2023-10-09T14:32:48;23.50;99.90
3051;DHT22;1535;51.098;6.414;2023-10-09T14:35:21;23.50;99.90
3051;DHT22;1535;51.098;6.414;2023-10-09T14:37:52;23.50;99.90
3051;DHT22;1535;51.098;6.414;2023-10-09T14:40:21;23.50;99.90
3051;DHT22;1535;51.098;6.414;2023-10-09T14:42:55;23.80;99.90
3051;DHT22;1535;51.098;6.414;2023-10-09T14:45:23;24.20;99.90
3051;DHT22;1535;51.098;6.414;2023-10-09T14:47:51;24.40;99.90
3051;DHT22;1535;51.098;6.414;2023-10-09T14:50:19;24.30;99.90
3051;DHT22;1535;51.098;6.414;2023-10-09T14:52:47;24.10;99.90
3051;DHT22;1535;51.098;6.414;2023-10-09T14:55:16;23.90;99.90
3051;DHT22;1535;51.098;6.414;2023-10-09T14:57:48;23.70;99.90
3051;DHT22;1535;51.098;6.414;2023-10-09T15:00:16;23.60;99.90
3051;DHT22;1535;51.098;6.414;2023-10-09T15:02:49;23.50;99.90
3051;DHT22;1535;51.098;6.414;2023-10-09T15:05:17;23.40;99.90
3051;DHT22;1535;51.098;6.414;2023-10-09T15:07:44;23.30;99.90
3051;DHT22;1535;51.098;6.414;2023-10-09T15:10:12;23.00;99.90
3051;DHT22;1535;51.098;6.414;2023-10-09T15:12:41;23.00;99.90
3051;DHT22;1535;51.098;6.414;2023-10-09T15:15:13;23.00;99.90
3051;DHT22;1535;51.098;6.414;2023-10-09T15:17:41;22.90;99.90
3051;DHT22;1535;51.098;6.414;2023-10-09T15:20:11;22.90;99.90
3051;DHT22;1535;51.098;6.414;2023-10-09T15:22:40;23.00;99.90
3051;DHT22;1535;51.098;6.414;2023-10-09T15:25:08;23.40;99.90
3051;DHT22;1535;51.098;6.414;2023-10-09T15:27:39;23.60;99.90
3051;DHT22;1535;51.098;6.414;2023-10-09T15:30:07;23.70;99.90
3051;DHT22;1535;51.098;6.414;2023-10-09T15:32:40;23.70;99.90
3051;DHT22;1535;51.098;6.414;2023-10-09T15:35:08;23.40;99.90
3051;DHT22;1535;51.098;6.414;2023-10-09T15:37:38;23.10;99.90
3051;DHT22;1535;51.098;6.414;2023-10-09T15:40:08;22.90;99.90
3051;DHT22;1535;51.098;6.414;2023-10-09T15:42:40;22.40;99.90
3051;DHT22;1535;51.098;6.414;2023-10-09T15:45:07;22.20;99.90
3051;DHT22;1535;51.098;6.414;2023-10-09T15:47:34;22.00;99.90
3051;DHT22;1535;51.098;6.414;2023-10-09T15:50:05;21.90;99.90
3051;DHT22;1535;51.098;6.414;2023-10-09T15:52:35;21.80;99.90
3051;DHT22;1535;51.098;6.414;2023-10-09T15:55:04;21.70;99.90
3051;DHT22;1535;51.098;6.414;2023-10-09T15:57:39;21.50;99.90
3051;DHT22;1535;51.098;6.414;2023-10-09T16:00:08;21.40;99.90
3051;DHT22;1535;51.098;6.414;2023-10-09T16:02:39;21.20;99.90
3051;DHT22;1535;51.098;6.414;2023-10-09T16:05:10;21.10;99.90
3051;DHT22;1535;51.098;6.414;2023-10-09T16:07:38;21.10;99.90
3051;DHT22;1535;51.098;6.414;2023-10-09T16:10:06;20.90;99.90
3051;DHT22;1535;51.098;6.414;2023-10-09T16:12:34;20.90;99.90
3051;DHT22;1535;51.098;6.414;2023-10-09T16:15:01;20.90;99.90
3051;DHT22;1535;51.098;6.414;2023-10-09T16:17:30;20.70;99.90
3051;DHT22;1535;51.098;6.414;2023-10-09T16:19:57;20.70;99.90
3051;DHT22;1535;51.098;6.414;2023-10-09T16:22:27;20.80;99.90
3051;DHT22;1535;51.098;6.414;2023-10-09T16:24:55;20.80;99.90
3051;DHT22;1535;51.098;6.414;2023-10-09T16:27:22;20.80;99.90
3051;DHT22;1535;51.098;6.414;2023-10-09T16:29:50;20.80;99.90
3051;DHT22;1535;51.098;6.414;2023-10-09T16:32:17;20.70;99.90
3051;DHT22;1535;51.098;6.414;2023-10-09T16:34:48;20.60;99.90
3051;DHT22;1535;51.098;6.414;2023-10-09T16:37:16;20.50;99.90
3051;DHT22;1535;51.098;6.414;2023-10-09T16:39:45;20.50;99.90
3051;DHT22;1535;51.098;6.414;2023-10-09T16:42:12;20.40;99.90
3051;DHT22;1535;51.098;6.414;2023-10-09T16:44:39;20.20;99.90
3051;DHT22;1535;51.098;6.414;2023-10-09T16:47:06;20.20;99.90